Time;durP1;ratioP1;P1;durP2;ratioP2;P2;SDS_P1;SDS_P2;PMS_P1;PMS_P2;Temp;Humidity;BMP_temperature;BMP_pressure;BME280_temperature;BME280_humidity;BME280_pressure;Samples;Min_cycle;Max_cycle;Signal;HPM_P1;HPM_P2
2021/10/05 00:00:07;;;;;;;6.27;3.43;;;;;;;;;;5095976;28;20486;-55
2021/10/05 00:02:36;;;;;;;11.10;6.90;;;;;;;;;;5096026;28;20456;-55
2021/10/05 00:05:03;;;;;;;5.50;3.60;;;;;;;;;;5096119;28;20709;-56
2021/10/05 00:07:40;;;;;;;4.63;2.57;;;;;;;;;;5096311;28;20460;-52
2021/10/05 00:10:08;;;;;;;3.00;1.90;;;;;;;;;;5095894;28;20467;-57
2021/10/05 00:12:35;;;;;;;6.97;4.10;;;;;;;;;;5095408;28;20459;-56
2021/10/05 00:15:21;;;;;;;4.47;2.23;;;;;;;;;;5095946;28;20464;-55
2021/10/05 00:17:50;;;;;;;5.60;2.27;;;;;;;;;;5096072;28;20463;-55
2021/10/05 00:20:18;;;;;;;8.90;4.33;;;;;;;;;;5095910;28;20444;-57
2021/10/05 00:22:53;;;;;;;7.60;3.00;;;;;;;;;;5095606;28;20436;-59
2021/10/05 00:25:20;;;;;;;7.00;2.90;;;;;;;;;;5115565;28;20907;-56
2021/10/05 00:27:48;;;;;;;9.83;3.10;;;;;;;;;;5115579;28;20542;-59
2021/10/05 00:30:15;;;;;;;3.67;2.20;;;;;;;;;;5115960;28;20536;-56
2021/10/05 00:32:42;;;;;;;4.73;2.47;;;;;;;;;;5116141;28;20448;-53
2021/10/05 00:38:15;;;;;;;3.13;1.70;;;;;;;;;;5107498;28;20470;-53
2021/10/05 00:40:42;;;;;;;3.30;1.80;;;;;;;;;;5096154;28;20460;-54
2021/10/05 00:43:10;;;;;;;3.30;1.90;;;;;;;;;;5096293;28;20443;-52
2021/10/05 00:45:39;;;;;;;6.03;2.10;;;;;;;;;;5096134;28;20458;-56
2021/10/05 00:48:06;;;;;;;3.90;2.50;;;;;;;;;;5095956;28;20456;-61
2021/10/05 00:50:36;;;;;;;4.80;2.13;;;;;;;;;;5095894;28;20479;-56
2021/10/05 00:53:04;;;;;;;4.60;2.27;;;;;;;;;;5093801;28;20495;-56
2021/10/05 00:55:33;;;;;;;4.67;2.23;;;;;;;;;;5096194;28;20456;-61
2021/10/05 00:58:00;;;;;;;4.23;1.77;;;;;;;;;;5095774;28;20535;-49
2021/10/05 01:00:27;;;;;;;3.20;1.93;;;;;;;;;;5096130;28;20424;-55
2021/10/05 01:03:11;;;;;;;4.53;1.60;;;;;;;;;;5096024;28;20443;-54
2021/10/05 01:05:38;;;;;;;2.43;1.57;;;;;;;;;;5095131;28;20432;-54
2021/10/05 01:08:06;;;;;;;5.03;1.60;;;;;;;;;;5095651;28;20456;-49
2021/10/05 01:10:52;;;;;;;3.10;1.70;;;;;;;;;;5095190;28;20510;-49
2021/10/05 01:13:20;;;;;;;3.33;1.70;;;;;;;;;;5094043;28;20475;-53
2021/10/05 01:15:48;;;;;;;4.60;2.03;;;;;;;;;;5095094;28;20467;-60
2021/10/05 01:18:38;;;;;;;2.67;1.60;;;;;;;;;;5095531;28;20444;-55
2021/10/05 01:21:07;;;;;;;4.03;2.10;;;;;;;;;;5093743;28;20475;-57
2021/10/05 01:23:34;;;;;;;2.53;1.53;;;;;;;;;;5095468;28;20514;-53
2021/10/05 01:26:12;;;;;;;3.30;1.57;;;;;;;;;;5095629;28;20498;-48
2021/10/05 01:28:39;;;;;;;3.03;1.70;;;;;;;;;;5095332;28;20444;-54
2021/10/05 01:31:06;;;;;;;2.60;1.43;;;;;;;;;;5095245;28;20451;-53
2021/10/05 01:33:45;;;;;;;2.67;1.50;;;;;;;;;;5095696;28;20467;-46
2021/10/05 01:36:14;;;;;;;2.43;1.30;;;;;;;;;;5099171;28;20459;-57
2021/10/05 01:38:41;;;;;;;3.27;1.60;;;;;;;;;;5098797;28;20527;-53
2021/10/05 01:41:27;;;;;;;2.40;1.30;;;;;;;;;;5099401;28;20455;-59
2021/10/05 01:43:54;;;;;;;3.07;1.70;;;;;;;;;;5097030;28;20487;-58
2021/10/05 01:46:22;;;;;;;3.23;1.50;;;;;;;;;;5098951;28;20448;-57
2021/10/05 01:48:54;;;;;;;4.70;2.30;;;;;;;;;;5098651;28;20448;-56
2021/10/05 01:51:23;;;;;;;2.80;1.50;;;;;;;;;;5098634;28;20488;-58
2021/10/05 01:53:51;;;;;;;4.87;2.13;;;;;;;;;;5098880;28;20436;-60
2021/10/05 01:56:30;;;;;;;4.73;1.90;;;;;;;;;;5098402;28;20458;-55
2021/10/05 01:58:57;;;;;;;2.70;1.70;;;;;;;;;;5098424;28;20456;-49
2021/10/05 02:01:24;;;;;;;5.17;1.83;;;;;;;;;;5098441;28;20486;-56
2021/10/05 02:03:53;;;;;;;3.97;1.47;;;;;;;;;;5098233;28;20460;-54
2021/10/05 02:06:20;;;;;;;5.50;1.70;;;;;;;;;;5098785;28;20482;-52
2021/10/05 02:08:49;;;;;;;3.70;1.83;;;;;;;;;;5098641;28;20424;-52
2021/10/05 02:11:53;;;;;;;3.00;1.30;;;;;;;;;;5098227;28;20476;-58
2021/10/05 02:14:20;;;;;;;3.70;1.80;;;;;;;;;;5098811;28;20460;-54
2021/10/05 02:16:48;;;;;;;3.50;1.57;;;;;;;;;;5098082;28;20452;-52
2021/10/05 02:19:25;;;;;;;2.10;1.10;;;;;;;;;;5098846;28;20456;-55
2021/10/05 02:21:52;;;;;;;2.90;1.50;;;;;;;;;;5096461;28;20480;-56
2021/10/05 02:30:10;;;;;;;4.10;1.50;;;;;;;;;;5095892;28;20571;-51
2021/10/05 02:32:39;;;;;;;2.90;1.60;;;;;;;;;;5097989;28;20452;-55
2021/10/05 02:35:14;;;;;;;2.73;1.57;;;;;;;;;;5098166;28;20498;-59
2021/10/05 02:37:41;;;;;;;3.27;1.40;;;;;;;;;;5098127;28;20478;-54
2021/10/05 02:40:11;;;;;;;10.47;1.93;;;;;;;;;;5098008;28;20425;-55
2021/10/05 02:42:47;;;;;;;2.20;1.30;;;;;;;;;;5097695;28;20456;-48
2021/10/05 02:45:15;;;;;;;4.23;1.70;;;;;;;;;;5097836;28;20502;-56
2021/10/05 02:47:42;;;;;;;3.40;1.43;;;;;;;;;;5098453;28;20787;-55
2021/10/05 02:50:21;;;;;;;3.13;1.57;;;;;;;;;;5097459;28;20814;-53
2021/10/05 02:52:49;;;;;;;3.30;1.80;;;;;;;;;;5097767;28;20501;-59
2021/10/05 02:55:17;;;;;;;3.57;1.70;;;;;;;;;;5097431;28;20498;-49
2021/10/05 02:57:54;;;;;;;3.33;1.63;;;;;;;;;;5079453;28;20470;-54
2021/10/05 03:00:23;;;;;;;3.00;1.77;;;;;;;;;;5097799;28;20486;-61
2021/10/05 03:02:50;;;;;;;3.20;1.90;;;;;;;;;;5097638;28;20473;-53
2021/10/05 03:05:31;;;;;;;3.60;1.60;;;;;;;;;;5097842;28;20464;-56
2021/10/05 03:07:59;;;;;;;2.93;1.67;;;;;;;;;;5095207;28;20484;-60
2021/10/05 03:10:40;;;;;;;3.80;1.90;;;;;;;;;;5097674;28;20488;-55
2021/10/05 03:13:09;;;;;;;6.93;2.13;;;;;;;;;;5096584;28;20477;-57
2021/10/05 03:15:38;;;;;;;4.40;1.83;;;;;;;;;;5096956;28;20432;-49
2021/10/05 03:18:22;;;;;;;2.67;2.10;;;;;;;;;;5097426;28;20444;-57
2021/10/05 03:20:51;;;;;;;2.60;1.73;;;;;;;;;;5096974;28;20425;-54
2021/10/05 03:23:20;;;;;;;5.70;2.47;;;;;;;;;;5096989;28;20436;-56
2021/10/05 03:25:56;;;;;;;2.57;1.60;;;;;;;;;;5090546;28;20814;-58
2021/10/05 03:28:24;;;;;;;4.13;2.00;;;;;;;;;;5076729;28;20448;-55
2021/10/05 03:30:51;;;;;;;3.90;2.50;;;;;;;;;;5079168;28;20544;-54
2021/10/05 03:33:22;;;;;;;3.60;2.20;;;;;;;;;;5096181;28;20440;-51
2021/10/05 03:35:53;;;;;;;4.03;2.20;;;;;;;;;;5096181;28;20468;-54
2021/10/05 03:38:22;;;;;;;3.17;2.20;;;;;;;;;;5096669;28;20507;-56
2021/10/05 03:40:58;;;;;;;6.93;2.20;;;;;;;;;;5097101;28;20456;-61
2021/10/05 03:43:26;;;;;;;3.33;2.17;;;;;;;;;;5091476;28;20459;-58
2021/10/05 03:45:53;;;;;;;4.20;2.90;;;;;;;;;;5096336;28;20436;-56
2021/10/05 03:48:51;;;;;;;4.43;2.30;;;;;;;;;;5096174;28;20508;-57
2021/10/05 03:51:18;;;;;;;3.80;2.77;;;;;;;;;;5096225;28;20492;-56
2021/10/05 03:53:46;;;;;;;4.13;2.57;;;;;;;;;;5095919;28;20932;-58
2021/10/05 03:56:22;;;;;;;4.97;2.53;;;;;;;;;;5096008;28;20475;-52
2021/10/05 03:58:55;;;;;;;3.47;2.67;;;;;;;;;;5095927;28;20464;-56
2021/10/05 04:01:23;;;;;;;6.43;2.70;;;;;;;;;;5095600;28;20491;-53
2021/10/05 04:04:19;;;;;;;5.10;2.87;;;;;;;;;;5095686;28;20464;-59
2021/10/05 04:06:46;;;;;;;4.50;2.90;;;;;;;;;;5094742;28;20483;-58
2021/10/05 04:09:13;;;;;;;4.13;3.20;;;;;;;;;;5096207;28;20425;-57
2021/10/05 04:11:53;;;;;;;3.87;2.90;;;;;;;;;;5078646;28;20476;-58
2021/10/05 04:14:20;;;;;;;7.57;3.60;;;;;;;;;;5094198;28;20456;-56
2021/10/05 04:16:48;;;;;;;7.40;3.27;;;;;;;;;;5096030;28;20448;-53
2021/10/05 04:19:29;;;;;;;6.00;4.17;;;;;;;;;;5095606;28;20490;-58
2021/10/05 04:21:56;;;;;;;7.13;3.13;;;;;;;;;;5093574;28;20499;-55
2021/10/05 04:24:24;;;;;;;7.10;3.27;;;;;;;;;;5096009;28;20464;-52
2021/10/05 04:26:53;;;;;;;3.43;2.70;;;;;;;;;;5094876;28;20490;-53
2021/10/05 04:29:20;;;;;;;4.90;3.13;;;;;;;;;;5095663;28;20454;-62
2021/10/05 04:31:54;;;;;;;4.57;3.33;;;;;;;;;;5095290;28;20456;-54
2021/10/05 04:34:21;;;;;;;5.77;2.90;;;;;;;;;;5113365;28;20443;-51
2021/10/05 04:36:50;;;;;;;4.53;2.90;;;;;;;;;;5105244;28;20444;-55
2021/10/05 04:39:24;;;;;;;4.03;2.50;;;;;;;;;;5094646;28;20530;-59
2021/10/05 04:41:51;;;;;;;5.03;3.10;;;;;;;;;;5093847;28;20602;-56
2021/10/05 04:44:20;;;;;;;4.37;2.77;;;;;;;;;;5095735;28;20471;-50
2021/10/05 04:46:56;;;;;;;5.70;3.70;;;;;;;;;;5094977;28;20478;-57
2021/10/05 04:49:23;;;;;;;10.93;3.83;;;;;;;;;;5081452;28;20440;-53
2021/10/05 04:51:51;;;;;;;4.87;3.00;;;;;;;;;;5083615;28;20469;-54
2021/10/05 04:54:20;;;;;;;4.20;2.57;;;;;;;;;;5088687;28;20451;-61
2021/10/05 04:56:48;;;;;;;5.23;2.80;;;;;;;;;;5095133;28;20467;-56
2021/10/05 04:59:18;;;;;;;6.17;3.17;;;;;;;;;;5094215;28;20531;-59
2021/10/05 05:01:47;;;;;;;4.47;3.10;;;;;;;;;;5095371;28;20739;-54
2021/10/05 05:04:16;;;;;;;4.67;3.10;;;;;;;;;;5094656;28;20516;-54
2021/10/05 05:06:44;;;;;;;6.50;4.60;;;;;;;;;;5095373;28;20452;-58
2021/10/05 05:09:13;;;;;;;5.07;3.20;;;;;;;;;;5096125;28;20460;-54
2021/10/05 05:11:41;;;;;;;5.80;3.47;;;;;;;;;;5098723;28;20492;-55
2021/10/05 05:14:10;;;;;;;5.03;3.50;;;;;;;;;;5099356;28;20444;-60
2021/10/05 05:16:43;;;;;;;4.40;3.30;;;;;;;;;;5099309;28;20420;-60
2021/10/05 05:19:12;;;;;;;4.47;3.27;;;;;;;;;;5098181;28;20584;-61
2021/10/05 05:22:14;;;;;;;6.47;3.77;;;;;;;;;;5098439;28;20443;-56
2021/10/05 05:24:42;;;;;;;4.37;3.20;;;;;;;;;;5098225;28;20474;-49
2021/10/05 05:27:09;;;;;;;4.80;3.00;;;;;;;;;;5098321;28;20459;-54
2021/10/05 05:29:36;;;;;;;4.93;3.53;;;;;;;;;;5098251;28;20554;-60
2021/10/05 05:32:04;;;;;;;5.17;3.50;;;;;;;;;;5096945;28;20518;-54
2021/10/05 05:34:33;;;;;;;6.87;4.30;;;;;;;;;;5097527;28;20432;-58
2021/10/05 05:37:01;;;;;;;5.30;3.73;;;;;;;;;;5097414;28;20424;-55
2021/10/05 05:39:30;;;;;;;6.63;4.40;;;;;;;;;;5098356;28;20558;-57
2021/10/05 05:41:58;;;;;;;6.97;4.33;;;;;;;;;;5085583;28;20477;-55
2021/10/05 05:44:32;;;;;;;8.53;4.67;;;;;;;;;;5077352;28;20460;-58
2021/10/05 05:47:00;;;;;;;5.97;3.87;;;;;;;;;;5088052;28;20453;-56
2021/10/05 05:49:27;;;;;;;5.83;4.10;;;;;;;;;;5083589;28;20441;-58
2021/10/05 05:52:22;;;;;;;6.20;3.70;;;;;;;;;;5093979;28;20472;-56
2021/10/05 05:54:50;;;;;;;5.47;3.90;;;;;;;;;;5097405;28;20452;-60
2021/10/05 05:57:18;;;;;;;5.03;3.90;;;;;;;;;;5096551;28;20503;-59
2021/10/05 05:59:46;;;;;;;6.23;4.53;;;;;;;;;;5097376;28;20513;-60
2021/10/05 06:02:13;;;;;;;6.10;4.40;;;;;;;;;;5100001;28;20428;-55
2021/10/05 06:04:41;;;;;;;5.30;4.60;;;;;;;;;;5101862;28;20459;-48
2021/10/05 06:07:11;;;;;;;5.07;3.87;;;;;;;;;;5097091;28;20452;-56
2021/10/05 06:09:38;;;;;;;7.10;4.20;;;;;;;;;;5097193;28;20456;-60
2021/10/05 06:12:18;;;;;;;6.10;4.47;;;;;;;;;;5096670;28;20557;-58
2021/10/05 06:14:45;;;;;;;6.27;4.57;;;;;;;;;;5096970;28;20467;-55
2021/10/05 06:17:13;;;;;;;6.90;4.10;;;;;;;;;;5097214;28;20539;-58
2021/10/05 06:19:41;;;;;;;5.70;4.53;;;;;;;;;;5096327;28;20460;-58
2021/10/05 06:22:12;;;;;;;6.37;4.53;;;;;;;;;;5096798;28;20447;-55
2021/10/05 06:27:37;;;;;;;7.90;4.03;;;;;;;;;;5097296;28;20671;-60
2021/10/05 06:30:05;;;;;;;6.07;4.30;;;;;;;;;;5097809;28;20458;-55
2021/10/05 06:32:32;;;;;;;6.10;4.43;;;;;;;;;;5097202;28;20543;-55
2021/10/05 06:35:17;;;;;;;7.07;4.80;;;;;;;;;;5096980;28;20451;-54
2021/10/05 06:37:53;;;;;;;6.37;4.17;;;;;;;;;;5097413;28;20436;-53
2021/10/05 06:40:44;;;;;;;5.73;4.33;;;;;;;;;;5097341;28;20435;-56
2021/10/05 06:43:14;;;;;;;6.87;4.43;;;;;;;;;;5081280;28;20484;-58
2021/10/05 06:45:42;;;;;;;7.60;4.80;;;;;;;;;;5097368;28;20450;-59
2021/10/05 06:48:22;;;;;;;9.23;4.87;;;;;;;;;;5097118;28;20464;-57
2021/10/05 06:50:59;;;;;;;8.33;4.53;;;;;;;;;;5095821;28;20440;-58
2021/10/05 06:53:31;;;;;;;6.50;4.80;;;;;;;;;;5096835;28;20444;-55
2021/10/05 06:56:00;;;;;;;7.43;5.30;;;;;;;;;;5097018;28;20466;-55
2021/10/05 06:58:31;;;;;;;5.10;4.00;;;;;;;;;;5094172;28;20567;-57
2021/10/05 07:00:59;;;;;;;8.13;5.20;;;;;;;;;;5113864;28;20455;-55
2021/10/05 07:03:49;;;;;;;6.03;5.13;;;;;;;;;;5094594;28;20461;-52
2021/10/05 07:06:16;;;;;;;8.97;4.53;;;;;;;;;;5091707;28;20557;-60
2021/10/05 07:08:45;;;;;;;7.53;5.23;;;;;;;;;;5095621;28;20460;-58
2021/10/05 07:11:13;;;;;;;7.80;4.90;;;;;;;;;;5096622;28;20483;-61
2021/10/05 07:13:48;;;;;;;9.90;4.67;;;;;;;;;;5096072;28;20460;-54
2021/10/05 07:16:16;;;;;;;6.67;5.00;;;;;;;;;;5076846;28;20484;-53
2021/10/05 07:18:44;;;;;;;5.97;3.80;;;;;;;;;;5117243;28;20439;-60
2021/10/05 07:21:14;;;;;;;6.43;4.50;;;;;;;;;;5116986;28;20467;-55
2021/10/05 07:23:42;;;;;;;5.03;4.23;;;;;;;;;;5097060;28;20562;-57
2021/10/05 07:26:11;;;;;;;6.57;4.60;;;;;;;;;;5094627;28;20462;-57
2021/10/05 07:31:42;;;;;;;8.23;4.70;;;;;;;;;;5094802;28;20502;-53
2021/10/05 07:34:09;;;;;;;6.40;4.63;;;;;;;;;;5094503;28;20460;-57
2021/10/05 07:36:39;;;;;;;6.57;4.83;;;;;;;;;;5095393;28;20482;-66
2021/10/05 07:39:08;;;;;;;5.17;4.20;;;;;;;;;;5094511;28;20456;-55
2021/10/05 07:41:37;;;;;;;5.53;3.90;;;;;;;;;;5094929;28;20452;-58
2021/10/05 07:44:20;;;;;;;6.03;4.00;;;;;;;;;;5095307;28;20483;-57
2021/10/05 07:46:48;;;;;;;6.50;4.10;;;;;;;;;;5079597;28;20464;-57
2021/10/05 07:49:16;;;;;;;10.67;7.13;;;;;;;;;;5075263;28;20452;-59
2021/10/05 07:51:43;;;;;;;5.00;3.90;;;;;;;;;;5090556;28;20483;-49
2021/10/05 07:54:11;;;;;;;7.57;4.30;;;;;;;;;;5095487;28;20423;-55
2021/10/05 07:56:42;;;;;;;6.03;4.03;;;;;;;;;;5095231;28;20440;-60
2021/10/05 07:59:10;;;;;;;9.13;5.67;;;;;;;;;;5095169;28;20464;-60
2021/10/05 08:01:37;;;;;;;6.00;4.73;;;;;;;;;;5094026;28;20462;-58
2021/10/05 08:04:31;;;;;;;7.30;6.47;;;;;;;;;;5095848;28;20444;-53
2021/10/05 08:07:12;;;;;;;8.57;5.37;;;;;;;;;;5079978;28;20487;-55
2021/10/05 08:10:17;;;;;;;4.50;3.73;;;;;;;;;;5074425;28;20450;-49
2021/10/05 08:12:47;;;;;;;5.93;4.70;;;;;;;;;;5074121;28;20497;-57
2021/10/05 08:15:16;;;;;;;6.70;4.67;;;;;;;;;;5075614;28;20480;-52
2021/10/05 08:17:43;;;;;;;5.50;4.03;;;;;;;;;;5075323;28;20445;-57
2021/10/05 08:20:12;;;;;;;7.80;3.90;;;;;;;;;;5074941;28;20422;-58
2021/10/05 08:22:41;;;;;;;5.30;4.00;;;;;;;;;;5074914;28;20473;-59
2021/10/05 08:25:09;;;;;;;5.27;3.87;;;;;;;;;;5074272;28;20508;-54
2021/10/05 08:27:37;;;;;;;5.13;3.20;;;;;;;;;;5074688;28;20505;-56
2021/10/05 08:30:24;;;;;;;4.57;3.17;;;;;;;;;;5074273;28;20449;-57
2021/10/05 08:32:55;;;;;;;4.70;3.33;;;;;;;;;;5084855;28;20495;-56
2021/10/05 08:35:23;;;;;;;6.03;3.87;;;;;;;;;;5094299;28;20471;-57
2021/10/05 08:37:50;;;;;;;5.00;3.40;;;;;;;;;;5093979;28;20511;-61
2021/10/05 08:40:18;;;;;;;6.27;4.00;;;;;;;;;;5095128;28;20731;-55
2021/10/05 08:43:00;;;;;;;4.20;2.80;;;;;;;;;;5095019;28;20490;-54
2021/10/05 08:45:29;;;;;;;3.70;2.73;;;;;;;;;;5097249;28;20463;-54
2021/10/05 08:48:07;;;;;;;4.47;3.03;;;;;;;;;;5095490;28;20444;-59
2021/10/05 08:50:36;;;;;;;6.40;3.07;;;;;;;;;;5077360;28;20467;-55
2021/10/05 08:53:05;;;;;;;9.13;3.43;;;;;;;;;;5078372;28;20477;-52
2021/10/05 08:55:43;;;;;;;5.93;3.27;;;;;;;;;;5078129;28;20413;-50
2021/10/05 08:58:12;;;;;;;4.63;2.40;;;;;;;;;;5082578;28;20447;-54
2021/10/05 09:00:41;;;;;;;3.90;1.90;;;;;;;;;;5097800;28;20444;-54
2021/10/05 09:03:24;;;;;;;4.30;2.20;;;;;;;;;;5098037;28;20444;-53
2021/10/05 09:05:51;;;;;;;4.73;2.67;;;;;;;;;;5097779;28;20451;-58
2021/10/05 09:08:28;;;;;;;4.40;2.00;;;;;;;;;;5098252;28;20452;-57
2021/10/05 09:11:02;;;;;;;4.53;1.80;;;;;;;;;;5097845;28;20439;-58
2021/10/05 09:13:32;;;;;;;3.70;1.67;;;;;;;;;;5097393;28;20540;-62
2021/10/05 09:16:28;;;;;;;3.40;1.80;;;;;;;;;;5097003;28;20448;-55
2021/10/05 09:18:58;;;;;;;5.30;2.97;;;;;;;;;;5097479;28;20447;-60
2021/10/05 09:21:26;;;;;;;4.70;2.30;;;;;;;;;;5097678;28;20479;-56
2021/10/05 09:24:15;;;;;;;2.73;1.17;;;;;;;;;;5096827;28;20460;-54
2021/10/05 09:26:49;;;;;;;3.57;1.60;;;;;;;;;;5095806;28;20463;-59
2021/10/05 09:29:18;;;;;;;4.17;2.10;;;;;;;;;;5097124;28;20460;-54
2021/10/05 09:31:49;;;;;;;2.80;1.40;;;;;;;;;;5084931;28;20501;-54
2021/10/05 09:34:18;;;;;;;4.93;1.77;;;;;;;;;;5097375;28;20436;-55
2021/10/05 09:36:45;;;;;;;3.07;1.50;;;;;;;;;;5097271;28;20433;-57
2021/10/05 09:42:20;;;;;;;2.77;1.37;;;;;;;;;;5097194;28;20443;-51
2021/10/05 09:44:59;;;;;;;4.13;1.30;;;;;;;;;;5075418;28;20476;-56
2021/10/05 09:47:51;;;;;;;2.70;1.23;;;;;;;;;;5076490;28;20464;-56
2021/10/05 09:50:27;;;;;;;3.70;1.60;;;;;;;;;;5077001;28;20437;-52
2021/10/05 09:52:56;;;;;;;2.90;1.27;;;;;;;;;;5076233;28;20508;-58
2021/10/05 09:55:50;;;;;;;5.00;2.07;;;;;;;;;;5075149;28;20453;-59
2021/10/05 09:58:18;;;;;;;2.43;1.20;;;;;;;;;;5091258;28;20565;-56
2021/10/05 10:00:46;;;;;;;3.77;1.43;;;;;;;;;;5096551;28;20455;-58
2021/10/05 10:03:35;;;;;;;3.17;1.53;;;;;;;;;;5096358;28;20460;-55
2021/10/05 10:06:04;;;;;;;9.70;1.73;;;;;;;;;;5096724;28;20578;-56
2021/10/05 10:08:34;;;;;;;23.07;8.43;;;;;;;;;;5096150;28;20570;-59
2021/10/05 10:11:02;;;;;;;5.57;1.90;;;;;;;;;;5096112;28;20709;-58
2021/10/05 10:13:31;;;;;;;2.20;0.90;;;;;;;;;;5096907;28;20475;-52
2021/10/05 10:16:00;;;;;;;3.33;1.60;;;;;;;;;;5096309;28;20516;-55
2021/10/05 10:19:02;;;;;;;3.30;1.57;;;;;;;;;;5087137;28;20449;-54
2021/10/05 10:21:33;;;;;;;2.60;1.37;;;;;;;;;;5094744;28;20507;-56
2021/10/05 10:24:11;;;;;;;1.87;0.97;;;;;;;;;;5096089;28;20451;-58
2021/10/05 10:26:47;;;;;;;3.70;1.47;;;;;;;;;;5094895;28;20505;-55
2021/10/05 10:29:16;;;;;;;3.83;1.10;;;;;;;;;;5096834;28;20460;-55
2021/10/05 10:31:44;;;;;;;6.93;2.27;;;;;;;;;;5095919;28;20452;-53
2021/10/05 10:34:46;;;;;;;3.57;1.83;;;;;;;;;;5058954;28;20579;-51
2021/10/05 10:40:53;;;;;;;2.93;1.33;;;;;;;;;;5072007;28;20491;-61
2021/10/05 10:43:21;;;;;;;3.30;1.53;;;;;;;;;;5085688;28;20448;-59
2021/10/05 10:46:09;;;;;;;4.67;2.10;;;;;;;;;;5095924;28;20524;-57
2021/10/05 10:51:49;;;;;;;4.30;1.67;;;;;;;;;;5085726;28;20493;-55
2021/10/05 10:54:25;;;;;;;6.77;1.70;;;;;;;;;;5096254;28;20515;-60
2021/10/05 10:57:09;;;;;;;6.30;1.90;;;;;;;;;;5097132;28;20421;-55
2021/10/05 10:59:36;;;;;;;3.10;1.57;;;;;;;;;;5096122;28;20439;-60
2021/10/05 11:02:16;;;;;;;7.60;1.60;;;;;;;;;;5095628;28;20458;-59
2021/10/05 11:04:47;;;;;;;2.70;1.37;;;;;;;;;;5095164;28;20811;-61
2021/10/05 11:07:15;;;;;;;2.87;1.40;;;;;;;;;;5093763;28;20468;-51
2021/10/05 11:09:59;;;;;;;7.43;2.03;;;;;;;;;;5095262;28;20466;-59
2021/10/05 11:12:33;;;;;;;5.40;1.73;;;;;;;;;;5095302;28;20495;-56
2021/10/05 11:15:11;;;;;;;7.53;1.60;;;;;;;;;;5095133;28;20432;-58
2021/10/05 11:17:44;;;;;;;2.97;1.27;;;;;;;;;;5094747;28;20464;-56
2021/10/05 11:20:15;;;;;;;4.23;1.57;;;;;;;;;;5095673;28;20463;-54
2021/10/05 11:25:58;;;;;;;2.83;1.70;;;;;;;;;;5076735;28;20511;-58
2021/10/05 11:28:31;;;;;;;6.13;1.40;;;;;;;;;;5082313;28;20460;-58
2021/10/05 11:34:04;;;;;;;3.30;1.43;;;;;;;;;;5085382;28;20495;-54
2021/10/05 11:36:44;;;;;;;9.00;1.80;;;;;;;;;;5093758;28;20433;-50
2021/10/05 11:39:21;;;;;;;7.57;2.10;;;;;;;;;;5095160;28;20448;-58
2021/10/05 11:42:10;;;;;;;6.13;2.40;;;;;;;;;;5091498;28;20441;-50
2021/10/05 11:47:41;;;;;;;3.67;1.47;;;;;;;;;;5095256;28;20478;-56
2021/10/05 11:50:10;;;;;;;5.07;2.20;;;;;;;;;;5094070;28;20452;-57
2021/10/05 11:52:45;;;;;;;3.83;2.30;;;;;;;;;;5094163;28;20483;-57
2021/10/05 11:55:20;;;;;;;4.57;1.80;;;;;;;;;;5082692;28;20686;-53
2021/10/05 11:57:56;;;;;;;8.63;2.40;;;;;;;;;;5094516;28;20456;-57
2021/10/05 12:00:25;;;;;;;8.57;1.73;;;;;;;;;;5095887;28;20463;-53
2021/10/05 12:02:53;;;;;;;6.70;1.57;;;;;;;;;;5094590;28;20452;-56
2021/10/05 12:05:37;;;;;;;7.50;2.43;;;;;;;;;;5092872;28;20445;-57
2021/10/05 12:08:05;;;;;;;3.50;1.67;;;;;;;;;;5076426;28;20444;-55
2021/10/05 12:10:33;;;;;;;4.33;1.73;;;;;;;;;;5093709;28;20456;-58
2021/10/05 12:13:17;;;;;;;5.00;1.60;;;;;;;;;;5093987;28;20475;-58
2021/10/05 12:15:46;;;;;;;3.70;1.37;;;;;;;;;;5093502;28;20455;-55
2021/10/05 12:18:14;;;;;;;5.50;2.30;;;;;;;;;;5092473;28;20468;-62
2021/10/05 12:20:41;;;;;;;5.23;1.57;;;;;;;;;;5092870;28;20479;-60
2021/10/05 12:23:09;;;;;;;5.03;2.20;;;;;;;;;;5094289;28;20436;-55
2021/10/05 12:25:49;;;;;;;9.43;4.50;;;;;;;;;;5094670;28;20424;-57
2021/10/05 12:28:19;;;;;;;5.00;2.10;;;;;;;;;;5094710;28;20511;-59
2021/10/05 12:30:54;;;;;;;7.33;1.93;;;;;;;;;;5094520;28;20451;-54
2021/10/05 12:33:22;;;;;;;4.90;1.30;;;;;;;;;;5094970;28;20519;-55
2021/10/05 12:35:55;;;;;;;4.63;1.70;;;;;;;;;;5094528;28;20508;-55
2021/10/05 12:38:39;;;;;;;4.47;1.80;;;;;;;;;;5095248;28;20432;-53
2021/10/05 12:41:12;;;;;;;6.13;2.33;;;;;;;;;;5094572;28;21613;-50
2021/10/05 12:43:48;;;;;;;6.00;2.53;;;;;;;;;;5094430;28;20482;-55
2021/10/05 12:46:18;;;;;;;5.40;3.37;;;;;;;;;;5094819;28;20448;-56
2021/10/05 12:48:46;;;;;;;5.63;3.00;;;;;;;;;;5095129;28;20479;-57
2021/10/05 12:51:18;;;;;;;4.97;2.00;;;;;;;;;;5099808;28;20514;-55
2021/10/05 12:53:46;;;;;;;3.43;2.13;;;;;;;;;;5107273;28;20589;-55
2021/10/05 12:56:14;;;;;;;6.30;3.40;;;;;;;;;;5114944;28;20499;-53
2021/10/05 12:59:10;;;;;;;3.70;1.53;;;;;;;;;;5099402;28;20463;-53
2021/10/05 13:01:42;;;;;;;6.50;2.67;;;;;;;;;;5094565;28;20468;-54
2021/10/05 13:04:10;;;;;;;4.30;2.80;;;;;;;;;;5109569;28;20485;-60
2021/10/05 13:06:55;;;;;;;5.53;3.77;;;;;;;;;;5103767;28;20460;-57
2021/10/05 13:09:22;;;;;;;10.30;4.47;;;;;;;;;;5109842;28;20919;-57
2021/10/05 13:14:46;;;;;;;4.77;2.20;;;;;;;;;;5086803;28;20496;-60
2021/10/05 13:17:24;;;;;;;5.10;2.33;;;;;;;;;;5094760;28;20478;-57
2021/10/05 13:19:58;;;;;;;5.20;2.77;;;;;;;;;;5110724;28;20506;-59
2021/10/05 13:22:39;;;;;;;4.37;1.50;;;;;;;;;;5112926;28;20482;-57
2021/10/05 13:25:25;;;;;;;4.30;1.60;;;;;;;;;;5114767;28;20443;-52
2021/10/05 13:27:52;;;;;;;3.90;1.47;;;;;;;;;;5097409;28;20463;-56
2021/10/05 13:30:31;;;;;;;3.73;1.40;;;;;;;;;;5111235;28;20470;-51
2021/10/05 13:33:14;;;;;;;5.37;1.77;;;;;;;;;;5114412;28;20477;-59
2021/10/05 13:35:42;;;;;;;2.97;1.50;;;;;;;;;;5100709;28;20503;-59
2021/10/05 13:38:15;;;;;;;4.20;1.67;;;;;;;;;;5098350;28;20513;-55
2021/10/05 13:41:11;;;;;;;7.73;2.60;;;;;;;;;;5097789;28;20448;-59
2021/10/05 13:43:42;;;;;;;6.70;2.97;;;;;;;;;;5097744;28;20451;-56
2021/10/05 13:46:13;;;;;;;5.87;2.20;;;;;;;;;;5091963;28;20580;-62
2021/10/05 13:48:59;;;;;;;5.10;3.00;;;;;;;;;;5097250;28;20451;-60
2021/10/05 13:51:45;;;;;;;4.37;2.30;;;;;;;;;;5098031;28;20456;-54
2021/10/05 13:54:22;;;;;;;5.67;2.80;;;;;;;;;;5095987;28;20551;-60
